DAL757 KATL-KPHX
Flight info
| Callsign | DAL757 |
|---|---|
| Flight time | N/A |
| Altitude | 30000 |
| Route | NASSA2 YAALL J14 IRW J6 ZUN EAGUL6 |
| Aircraft | A321/M-SDE3FGHIRWY/LB1 |
Departure
| Time | N/A |
|---|---|
| Airport | Hartsfield Jackson Atlanta International Airport (KATL) |
Arrival
| Time | 2026-05-04 02:55 |
|---|---|
| Airport | Phoenix Sky Harbor International Airport (KPHX) |
| Time | Latitude | Longitude | Altitude | Speed | Heading |
|---|---|---|---|---|---|
| 2026-05-04 02:13 | 35.00063 | -108.26879 | 33931 ft | 374 kts | 269° |
| 2026-05-04 02:14 | 34.99832 | -108.33260 | 33931 ft | 374 kts | 269° |
| 2026-05-04 02:14 | 34.99598 | -108.39604 | 33927 ft | 374 kts | 269° |
| 2026-05-04 02:15 | 34.99404 | -108.44920 | 33888 ft | 374 kts | 269° |
| 2026-05-04 02:15 | 34.99164 | -108.51352 | 33888 ft | 375 kts | 269° |
| 2026-05-04 02:16 | 34.98922 | -108.57694 | 33889 ft | 375 kts | 269° |
| 2026-05-04 02:16 | 34.98677 | -108.64045 | 33885 ft | 375 kts | 269° |
| 2026-05-04 02:17 | 34.98426 | -108.70396 | 33888 ft | 375 kts | 269° |
| 2026-05-04 02:17 | 34.98178 | -108.76741 | 33876 ft | 374 kts | 269° |
| 2026-05-04 02:18 | 34.97926 | -108.83043 | 33881 ft | 374 kts | 268° |
| 2026-05-04 02:18 | 34.97664 | -108.89383 | 33879 ft | 373 kts | 268° |
| 2026-05-04 02:19 | 34.97402 | -108.95695 | 33881 ft | 372 kts | 268° |
| 2026-05-04 02:19 | 34.97142 | -109.01995 | 33867 ft | 372 kts | 268° |
| 2026-05-04 02:20 | 34.96877 | -109.08300 | 33889 ft | 373 kts | 268° |
| 2026-05-04 02:20 | 34.96496 | -109.14611 | 33851 ft | 375 kts | 261° |
| 2026-05-04 02:21 | 34.94690 | -109.20661 | 33856 ft | 381 kts | 251° |
| 2026-05-04 02:21 | 34.92536 | -109.26544 | 33850 ft | 379 kts | 251° |
| 2026-05-04 02:22 | 34.90384 | -109.32443 | 33860 ft | 378 kts | 251° |
| 2026-05-04 02:22 | 34.88237 | -109.38323 | 33862 ft | 377 kts | 251° |
| 2026-05-04 02:23 | 34.86103 | -109.44159 | 33867 ft | 377 kts | 251° |
| 2026-05-04 02:23 | 34.83970 | -109.49966 | 33868 ft | 376 kts | 251° |
| 2026-05-04 02:24 | 34.81824 | -109.55807 | 33867 ft | 375 kts | 251° |
| 2026-05-04 02:24 | 34.79686 | -109.61591 | 33862 ft | 374 kts | 251° |
| 2026-05-04 02:25 | 34.77555 | -109.67362 | 33848 ft | 373 kts | 251° |
| 2026-05-04 02:25 | 34.75430 | -109.73125 | 33841 ft | 373 kts | 251° |
| 2026-05-04 02:26 | 34.73300 | -109.78878 | 33836 ft | 373 kts | 251° |
| 2026-05-04 02:26 | 34.71168 | -109.84632 | 33834 ft | 373 kts | 251° |
| 2026-05-04 02:27 | 34.69033 | -109.90370 | 33834 ft | 372 kts | 251° |
| 2026-05-04 02:27 | 34.66902 | -109.96101 | 33843 ft | 372 kts | 251° |
| 2026-05-04 02:28 | 34.64777 | -110.01791 | 33848 ft | 372 kts | 251° |
| 2026-05-04 02:28 | 34.62638 | -110.07515 | 33854 ft | 372 kts | 251° |
| 2026-05-04 02:29 | 34.60499 | -110.13238 | 33850 ft | 372 kts | 251° |
| 2026-05-04 02:29 | 34.58359 | -110.18949 | 33838 ft | 363 kts | 251° |
| 2026-05-04 02:30 | 34.57311 | -110.21734 | 33637 ft | 362 kts | 251° |
| 2026-05-04 02:30 | 34.56271 | -110.24506 | 33372 ft | 361 kts | 251° |
| 2026-05-04 02:30 | 34.55229 | -110.27282 | 33104 ft | 362 kts | 251° |
| 2026-05-04 02:30 | 34.54185 | -110.30067 | 32851 ft | 364 kts | 251° |
| 2026-05-04 02:31 | 34.53135 | -110.32866 | 32600 ft | 366 kts | 251° |
| 2026-05-04 02:31 | 34.52080 | -110.35675 | 32354 ft | 366 kts | 251° |
| 2026-05-04 02:31 | 34.51013 | -110.38510 | 32098 ft | 366 kts | 250° |
| 2026-05-04 02:31 | 34.49951 | -110.41318 | 31848 ft | 366 kts | 250° |
| 2026-05-04 02:32 | 34.48895 | -110.44108 | 31582 ft | 363 kts | 250° |
| 2026-05-04 02:32 | 34.47844 | -110.46884 | 31323 ft | 362 kts | 251° |
| 2026-05-04 02:32 | 34.46795 | -110.49654 | 31068 ft | 360 kts | 250° |
| 2026-05-04 02:32 | 34.45752 | -110.52406 | 30830 ft | 359 kts | 250° |
| 2026-05-04 02:33 | 34.44711 | -110.55157 | 30593 ft | 359 kts | 250° |
| 2026-05-04 02:33 | 34.43668 | -110.57905 | 30356 ft | 359 kts | 250° |
| 2026-05-04 02:33 | 34.42626 | -110.60647 | 30126 ft | 359 kts | 250° |
| 2026-05-04 02:33 | 34.41579 | -110.63395 | 29886 ft | 359 kts | 249° |
| 2026-05-04 02:34 | 34.40533 | -110.66137 | 29606 ft | 358 kts | 249° |
| 2026-05-04 02:34 | 34.39488 | -110.68875 | 29334 ft | 357 kts | 249° |
| 2026-05-04 02:34 | 34.38448 | -110.71603 | 29063 ft | 356 kts | 249° |
| 2026-05-04 02:34 | 34.37415 | -110.74314 | 28792 ft | 355 kts | 249° |
| 2026-05-04 02:35 | 34.36380 | -110.77028 | 28530 ft | 354 kts | 249° |
| 2026-05-04 02:35 | 34.35178 | -110.79634 | 28259 ft | 357 kts | 240° |
| 2026-05-04 02:35 | 34.33561 | -110.81940 | 28010 ft | 361 kts | 233° |
| 2026-05-04 02:35 | 34.31845 | -110.84145 | 27744 ft | 359 kts | 233° |
| 2026-05-04 02:36 | 34.30119 | -110.86372 | 27480 ft | 357 kts | 233° |
| 2026-05-04 02:36 | 34.28426 | -110.88563 | 27233 ft | 356 kts | 233° |
| 2026-05-04 02:36 | 34.26739 | -110.90748 | 26973 ft | 355 kts | 233° |
| 2026-05-04 02:36 | 34.25060 | -110.92924 | 26498 ft | 354 kts | 233° |
| 2026-05-04 02:37 | 34.23362 | -110.95121 | 25968 ft | 352 kts | 232° |
| 2026-05-04 02:37 | 34.21692 | -110.97281 | 25435 ft | 351 kts | 232° |
| 2026-05-04 02:37 | 34.20029 | -110.99429 | 24911 ft | 349 kts | 232° |
| 2026-05-04 02:37 | 34.18371 | -111.01570 | 24379 ft | 349 kts | 232° |
| 2026-05-04 02:38 | 34.16716 | -111.03703 | 23852 ft | 348 kts | 231° |
| 2026-05-04 02:38 | 34.15065 | -111.05825 | 23421 ft | 345 kts | 231° |
| 2026-05-04 02:38 | 34.13985 | -111.07213 | 23219 ft | 339 kts | 231° |
| 2026-05-04 02:38 | 34.11866 | -111.09938 | 22810 ft | 329 kts | 231° |
| 2026-05-04 02:39 | 34.10829 | -111.11274 | 22428 ft | 329 kts | 232° |
| 2026-05-04 02:39 | 34.09274 | -111.13272 | 21975 ft | 325 kts | 231° |
| 2026-05-04 02:39 | 34.07720 | -111.15268 | 21490 ft | 324 kts | 230° |
| 2026-05-04 02:39 | 34.06178 | -111.17243 | 20959 ft | 324 kts | 230° |
| 2026-05-04 02:40 | 34.04650 | -111.19202 | 20602 ft | 319 kts | 229° |
| 2026-05-04 02:40 | 34.03145 | -111.21128 | 19956 ft | 314 kts | 229° |
| 2026-05-04 02:40 | 34.01658 | -111.23030 | 19404 ft | 310 kts | 229° |
| 2026-05-04 02:40 | 34.00183 | -111.24922 | 18914 ft | 309 kts | 229° |
| 2026-05-04 02:41 | 33.98718 | -111.26800 | 18504 ft | 305 kts | 229° |
| 2026-05-04 02:41 | 33.97282 | -111.28640 | 18168 ft | 297 kts | 228° |
| 2026-05-04 02:41 | 33.95878 | -111.30439 | 17622 ft | 293 kts | 228° |
| 2026-05-04 02:41 | 33.94487 | -111.32222 | 17148 ft | 291 kts | 227° |
| 2026-05-04 02:42 | 33.93076 | -111.34025 | 16680 ft | 292 kts | 226° |
| 2026-05-04 02:42 | 33.91698 | -111.35777 | 16226 ft | 292 kts | 226° |
| 2026-05-04 02:42 | 33.90297 | -111.37560 | 15750 ft | 293 kts | 226° |
| 2026-05-04 02:42 | 33.88899 | -111.39348 | 15297 ft | 295 kts | 225° |
| 2026-05-04 02:43 | 33.87394 | -111.41008 | 14880 ft | 293 kts | 215° |
| 2026-05-04 02:43 | 33.85735 | -111.42433 | 14539 ft | 291 kts | 214° |
| 2026-05-04 02:43 | 33.84092 | -111.43843 | 14174 ft | 290 kts | 214° |
| 2026-05-04 02:43 | 33.82456 | -111.45249 | 13684 ft | 288 kts | 214° |
| 2026-05-04 02:44 | 33.80828 | -111.46648 | 13048 ft | 287 kts | 214° |
| 2026-05-04 02:44 | 33.79196 | -111.48052 | 12539 ft | 284 kts | 214° |
| 2026-05-04 02:44 | 33.77600 | -111.49429 | 12085 ft | 280 kts | 214° |
| 2026-05-04 02:44 | 33.76027 | -111.50785 | 11649 ft | 278 kts | 214° |
| 2026-05-04 02:45 | 33.74448 | -111.52140 | 11216 ft | 277 kts | 214° |
| 2026-05-04 02:45 | 33.72878 | -111.53486 | 10792 ft | 278 kts | 215° |
| 2026-05-04 02:45 | 33.71308 | -111.54831 | 10377 ft | 278 kts | 214° |
| 2026-05-04 02:45 | 33.69731 | -111.56181 | 10090 ft | 273 kts | 214° |
| 2026-05-04 02:46 | 33.68239 | -111.57460 | 10014 ft | 261 kts | 214° |
| 2026-05-04 02:46 | 33.66789 | -111.58704 | 9905 ft | 248 kts | 214° |
| 2026-05-04 02:46 | 33.65412 | -111.59884 | 9597 ft | 239 kts | 214° |
| 2026-05-04 02:46 | 33.64082 | -111.61023 | 9337 ft | 228 kts | 214° |
| 2026-05-04 02:47 | 33.62805 | -111.62105 | 8983 ft | 222 kts | 214° |
| 2026-05-04 02:47 | 33.61543 | -111.63163 | 8548 ft | 220 kts | 215° |
| 2026-05-04 02:47 | 33.60290 | -111.64207 | 8215 ft | 217 kts | 214° |
| 2026-05-04 02:47 | 33.59053 | -111.65234 | 7866 ft | 215 kts | 215° |
| 2026-05-04 02:48 | 33.57824 | -111.66255 | 7495 ft | 215 kts | 215° |
| 2026-05-04 02:48 | 33.56614 | -111.67263 | 7145 ft | 213 kts | 215° |
| 2026-05-04 02:48 | 33.55395 | -111.68284 | 6790 ft | 213 kts | 215° |
| 2026-05-04 02:48 | 33.54172 | -111.69313 | 6486 ft | 212 kts | 215° |
| 2026-05-04 02:49 | 33.52974 | -111.70328 | 6191 ft | 210 kts | 216° |
| 2026-05-04 02:49 | 33.51779 | -111.71336 | 5821 ft | 209 kts | 215° |
| 2026-05-04 02:49 | 33.50585 | -111.72344 | 5423 ft | 209 kts | 216° |
| 2026-05-04 02:49 | 33.49401 | -111.73344 | 5050 ft | 208 kts | 216° |
| 2026-05-04 02:50 | 33.48218 | -111.74343 | 4696 ft | 207 kts | 215° |
| 2026-05-04 02:50 | 33.47044 | -111.75334 | 4540 ft | 206 kts | 216° |
| 2026-05-04 02:50 | 33.45875 | -111.76322 | 4328 ft | 204 kts | 216° |
| 2026-05-04 02:50 | 33.44849 | -111.77399 | 4190 ft | 190 kts | 231° |
| 2026-05-04 02:51 | 33.44236 | -111.78733 | 4101 ft | 183 kts | 250° |
| 2026-05-04 02:51 | 33.44035 | -111.80222 | 4016 ft | 182 kts | 267° |
| 2026-05-04 02:51 | 33.44040 | -111.81743 | 3846 ft | 179 kts | 266° |
| 2026-05-04 02:51 | 33.44047 | -111.83234 | 3630 ft | 177 kts | 266° |
| 2026-05-04 02:52 | 33.44051 | -111.84699 | 3405 ft | 176 kts | 267° |
| 2026-05-04 02:52 | 33.44056 | -111.86161 | 3173 ft | 175 kts | 265° |
| 2026-05-04 02:52 | 33.44059 | -111.87591 | 2936 ft | 174 kts | 266° |
| 2026-05-04 02:52 | 33.44062 | -111.89057 | 2706 ft | 169 kts | 268° |
| 2026-05-04 02:53 | 33.44067 | -111.90403 | 2520 ft | 154 kts | 266° |
| 2026-05-04 02:53 | 33.44070 | -111.91648 | 2320 ft | 147 kts | 265° |
| 2026-05-04 02:53 | 33.44071 | -111.92859 | 2139 ft | 145 kts | 266° |
| 2026-05-04 02:53 | 33.44073 | -111.94053 | 1998 ft | 144 kts | 265° |
| 2026-05-04 02:54 | 33.44076 | -111.95254 | 1824 ft | 143 kts | 269° |
| 2026-05-04 02:54 | 33.44076 | -111.96454 | 1635 ft | 144 kts | 268° |
| 2026-05-04 02:54 | 33.44079 | -111.97635 | 1452 ft | 145 kts | 270° |
| 2026-05-04 02:54 | 33.44081 | -111.98854 | 1228 ft | 140 kts | 269° |
| 2026-05-04 02:55 | 33.44081 | -112.00701 | 1133 ft | 60 kts | 271° |
| 2026-05-04 02:55 | 33.44057 | -112.01046 | 1132 ft | 27 kts | 238° |
| 2026-05-04 02:55 | 33.43935 | -112.01133 | 1123 ft | 19 kts | 184° |
| 2026-05-04 02:56 | 33.43900 | -112.01039 | 1125 ft | 13 kts | 89° |
| 2026-05-04 02:56 | 33.43901 | -112.00935 | 1125 ft | 12 kts | 89° |
| 2026-05-04 02:56 | 33.43902 | -112.00842 | 1125 ft | 10 kts | 90° |
| 2026-05-04 02:56 | 33.43901 | -112.00749 | 1125 ft | 15 kts | 90° |
| 2026-05-04 02:57 | 33.43901 | -112.00592 | 1125 ft | 21 kts | 90° |
| 2026-05-04 02:57 | 33.43846 | -112.00469 | 1118 ft | 17 kts | 161° |
| 2026-05-04 02:57 | 33.43737 | -112.00468 | 1118 ft | 15 kts | 180° |
| 2026-05-04 02:57 | 33.43631 | -112.00468 | 1122 ft | 15 kts | 180° |
| 2026-05-04 02:58 | 33.43536 | -112.00468 | 1121 ft | 13 kts | 180° |
| 2026-05-04 02:58 | 33.43445 | -112.00468 | 1120 ft | 12 kts | 180° |
| 2026-05-04 02:58 | 33.43364 | -112.00468 | 1121 ft | 11 kts | 180° |
| 2026-05-04 02:58 | 33.43296 | -112.00489 | 1118 ft | 9 kts | 229° |
| 2026-05-04 02:59 | 33.43288 | -112.00570 | 1123 ft | 12 kts | 270° |
| 2026-05-04 02:59 | 33.43288 | -112.00635 | 1118 ft | 12 kts | 270° |
| 2026-05-04 02:59 | 33.43306 | -112.00719 | 1118 ft | 11 kts | 324° |
| 2026-05-04 02:59 | 33.43339 | -112.00821 | 1119 ft | 16 kts | 270° |
| 2026-05-04 03:00 | 33.43340 | -112.00952 | 1118 ft | 15 kts | 270° |
| 2026-05-04 03:00 | 33.43370 | -112.01023 | 1123 ft | 6 kts | 342° |
| 2026-05-04 03:00 | 33.43389 | -112.01027 | 1117 ft | 0 kts | 348° |